createdAt,value
2023-06-18T00:00:57.256Z,51.21
2023-06-18T00:03:23.966Z,51.50
2023-06-18T00:05:50.996Z,51.15
2023-06-18T00:08:17.600Z,52.28
2023-06-18T00:10:44.278Z,52.05
2023-06-18T00:13:13.242Z,51.91
2023-06-18T00:15:39.851Z,51.93
2023-06-18T00:18:06.936Z,51.38
2023-06-18T00:20:36.546Z,51.57
2023-06-18T00:23:03.407Z,52.23
2023-06-18T00:25:30.008Z,52.21
2023-06-18T00:27:56.644Z,51.74
2023-06-18T00:30:23.468Z,51.02
2023-06-18T00:32:52.492Z,51.59
2023-06-18T00:35:19.663Z,51.20
2023-06-18T00:37:46.401Z,51.67
2023-06-18T00:40:14.401Z,51.74
2023-06-18T00:42:41.218Z,52.15
2023-06-18T00:45:13.176Z,52.32
2023-06-18T00:47:45.669Z,51.83
2023-06-18T00:50:17.306Z,52.64
2023-06-18T00:52:48.901Z,53.03
2023-06-18T00:55:19.091Z,52.46
2023-06-18T00:57:50.806Z,51.42
2023-06-18T01:00:20.923Z,52.73
2023-06-18T01:02:51.119Z,52.91
2023-06-18T01:05:21.496Z,52.34
2023-06-18T01:07:52.157Z,52.35
2023-06-18T01:10:21.798Z,52.86
2023-06-18T01:12:49.849Z,52.73
2023-06-18T01:15:19.205Z,53.27
2023-06-18T01:17:50.083Z,53.34
2023-06-18T01:20:20.067Z,52.56
2023-06-18T01:22:59.117Z,52.11
2023-06-18T01:25:27.301Z,52.56
2023-06-18T01:27:55.142Z,52.67
2023-06-18T01:30:22.650Z,52.87
2023-06-18T01:32:55.563Z,52.21
2023-06-18T01:35:23.707Z,52.51
2023-06-18T01:38:02.513Z,52.59
2023-06-18T01:40:55.316Z,53.16
2023-06-18T01:43:31.709Z,52.39
2023-06-18T01:46:03.338Z,52.90
2023-06-18T01:48:38.936Z,54.01
2023-06-18T01:51:07.164Z,52.51
2023-06-18T01:53:36.157Z,52.35
2023-06-18T01:56:03.467Z,53.25
2023-06-18T01:58:34.746Z,52.33
2023-06-18T02:01:02.138Z,52.90
2023-06-18T02:03:28.882Z,52.16
2023-06-18T02:05:56.102Z,53.06
2023-06-18T02:08:22.710Z,52.94
2023-06-18T02:10:51.801Z,52.11
2023-06-18T02:13:19.124Z,52.69
2023-06-18T02:15:45.989Z,52.60
2023-06-18T02:18:13.159Z,52.51
2023-06-18T02:20:40.836Z,52.67
2023-06-18T02:23:07.515Z,52.96
2023-06-18T02:25:35.082Z,51.64
2023-06-18T02:28:03.126Z,52.31
2023-06-18T02:30:30.564Z,51.87
2023-06-18T02:33:07.610Z,52.44
2023-06-18T02:35:39.437Z,52.46
2023-06-18T02:38:06.024Z,52.46
2023-06-18T02:40:32.653Z,52.05
2023-06-18T02:42:59.576Z,51.54
2023-06-18T02:45:27.233Z,52.05
2023-06-18T02:47:54.172Z,51.32
2023-06-18T02:50:21.946Z,51.18
2023-06-18T02:52:49.307Z,51.39
2023-06-18T02:55:16.778Z,50.79
2023-06-18T02:57:44.807Z,51.51
2023-06-18T03:00:13.469Z,51.19
2023-06-18T03:02:43.548Z,51.39
2023-06-18T03:05:15.371Z,51.36
2023-06-18T03:07:43.160Z,51.47
2023-06-18T03:10:11.409Z,51.78
2023-06-18T03:12:38.461Z,52.08
2023-06-18T03:15:19.339Z,51.92
2023-06-18T03:17:46.084Z,51.73
2023-06-18T03:20:13.434Z,51.92
2023-06-18T03:22:40.464Z,52.34
2023-06-18T03:25:07.713Z,53.06
2023-06-18T03:27:34.567Z,52.38
2023-06-18T03:30:04.830Z,51.66
2023-06-18T03:32:34.188Z,50.34
2023-06-18T03:35:02.088Z,51.02
2023-06-18T03:37:29.151Z,50.60
2023-06-18T03:39:55.747Z,51.05
2023-06-18T03:42:22.837Z,51.46
2023-06-18T03:44:49.439Z,50.97
2023-06-18T03:47:18.288Z,50.26
2023-06-18T03:49:44.893Z,50.56
2023-06-18T03:52:12.367Z,50.52
2023-06-18T03:54:39.850Z,50.06
2023-06-18T03:57:06.559Z,50.10
2023-06-18T03:59:34.255Z,50.82
2023-06-18T04:02:02.105Z,51.57
2023-06-18T04:04:29.119Z,50.97
2023-06-18T04:06:55.757Z,50.10
2023-06-18T04:09:22.332Z,50.48
2023-06-18T04:11:49.390Z,51.13
2023-06-18T04:14:16.267Z,50.74
2023-06-18T04:16:43.520Z,51.31
2023-06-18T04:19:10.590Z,51.33
2023-06-18T04:21:38.152Z,51.77
2023-06-18T04:24:05.222Z,51.62
2023-06-18T04:26:31.932Z,51.92
2023-06-18T04:28:58.660Z,51.38
2023-06-18T04:31:25.435Z,51.83
2023-06-18T04:33:52.531Z,51.50
2023-06-18T04:36:19.231Z,50.92
2023-06-18T04:38:50.636Z,50.88
2023-06-18T04:41:17.247Z,51.17
2023-06-18T04:43:44.677Z,50.75
2023-06-18T04:46:11.483Z,51.70
2023-06-18T04:48:39.125Z,50.47
2023-06-18T04:51:06.257Z,52.18
2023-06-18T04:53:33.346Z,51.18
2023-06-18T04:56:01.124Z,51.32
2023-06-18T04:58:35.762Z,52.08
2023-06-18T05:01:03.591Z,51.97
2023-06-18T05:03:30.518Z,52.19
2023-06-18T05:05:57.524Z,51.77
2023-06-18T05:08:24.262Z,51.72
2023-06-18T05:10:50.949Z,52.17
2023-06-18T05:13:19.418Z,52.25
2023-06-18T05:15:46.159Z,50.92
2023-06-18T05:18:13.067Z,50.30
2023-06-18T05:20:39.746Z,51.16
2023-06-18T05:23:07.002Z,51.49
2023-06-18T05:25:35.798Z,51.35
2023-06-18T05:28:02.401Z,51.90
2023-06-18T05:30:32.066Z,51.90
2023-06-18T05:32:58.903Z,50.26
2023-06-18T05:35:25.870Z,50.46
2023-06-18T05:37:56.428Z,49.12
2023-06-18T05:40:23.377Z,48.79
2023-06-18T05:42:51.261Z,50.00
2023-06-18T05:45:18.874Z,49.66
2023-06-18T05:47:46.722Z,48.79
2023-06-18T05:50:21.348Z,49.52
2023-06-18T05:52:48.666Z,48.87
2023-06-18T05:55:15.510Z,49.64
2023-06-18T05:57:43.493Z,50.30
2023-06-18T06:00:11.313Z,49.80
2023-06-18T06:02:40.901Z,48.71
2023-06-18T06:05:14.162Z,48.38
2023-06-18T06:07:40.806Z,48.06
2023-06-18T06:10:09.390Z,47.22
2023-06-18T06:12:36.203Z,46.98
2023-06-18T06:15:03.366Z,48.32
2023-06-18T06:17:30.278Z,46.69
2023-06-18T06:19:57.305Z,45.82
2023-06-18T06:22:23.931Z,45.95
2023-06-18T06:24:50.580Z,46.03
2023-06-18T06:27:18.434Z,45.83
2023-06-18T06:29:45.322Z,44.61
2023-06-18T06:32:11.970Z,44.31
2023-06-18T06:34:38.849Z,45.86
2023-06-18T06:37:06.431Z,43.87
2023-06-18T06:39:34.079Z,44.88
2023-06-18T06:42:01.023Z,43.88
2023-06-18T06:44:30.080Z,43.14
2023-06-18T06:47:15.461Z,41.41
2023-06-18T06:50:08.203Z,42.18
2023-06-18T06:53:01.414Z,43.16
2023-06-18T06:55:27.999Z,41.94
2023-06-18T06:57:54.624Z,42.31
2023-06-18T07:00:22.046Z,42.53
2023-06-18T07:02:49.124Z,42.03
2023-06-18T07:05:15.944Z,42.03
2023-06-18T07:07:42.816Z,41.25
2023-06-18T07:10:09.728Z,41.09
2023-06-18T07:12:36.317Z,41.26
2023-06-18T07:15:03.306Z,40.92
2023-06-18T07:17:29.926Z,40.24
2023-06-18T07:19:56.567Z,39.80
2023-06-18T07:22:23.182Z,39.12
2023-06-18T07:24:49.754Z,38.13
2023-06-18T07:27:16.421Z,37.71
2023-06-18T07:29:43.057Z,36.53
2023-06-18T07:32:09.698Z,37.40
2023-06-18T07:34:36.266Z,37.86
2023-06-18T07:37:02.854Z,37.84
2023-06-18T07:39:29.485Z,35.14
2023-06-18T07:41:56.052Z,35.73
2023-06-18T07:44:22.789Z,35.50
2023-06-18T07:46:49.454Z,34.91
2023-06-18T07:49:17.780Z,33.61
2023-06-18T07:51:44.568Z,32.70
2023-06-18T07:54:11.237Z,32.03
2023-06-18T07:56:37.914Z,32.31
2023-06-18T07:59:04.618Z,31.62
2023-06-18T08:01:31.530Z,32.31
2023-06-18T08:03:58.107Z,31.89
2023-06-18T08:06:26.958Z,31.80
2023-06-18T08:08:56.764Z,30.91
2023-06-18T08:11:23.470Z,30.07
2023-06-18T08:13:50.088Z,29.41
2023-06-18T08:16:18.230Z,30.26
2023-06-18T08:18:45.045Z,30.06
2023-06-18T08:21:12.897Z,30.50
2023-06-18T08:23:39.697Z,30.26
2023-06-18T08:26:06.286Z,29.20
2023-06-18T08:28:32.876Z,29.46
2023-06-18T08:30:59.447Z,29.57
2023-06-18T08:33:26.041Z,28.45
2023-06-18T08:35:52.646Z,27.95
2023-06-18T08:38:19.302Z,27.68
2023-06-18T08:41:02.069Z,28.82
2023-06-18T08:43:33.344Z,28.46
2023-06-18T08:46:16.726Z,28.60
2023-06-18T08:49:01.805Z,28.13
2023-06-18T08:51:28.697Z,27.75
2023-06-18T08:54:15.125Z,28.10
2023-06-18T08:56:46.157Z,27.87
2023-06-18T08:59:14.069Z,27.59
2023-06-18T09:01:44.696Z,27.91
2023-06-18T09:04:12.104Z,27.76
2023-06-18T09:06:39.836Z,28.02
2023-06-18T09:09:10.066Z,27.96
2023-06-18T09:11:37.737Z,27.39
2023-06-18T09:14:04.914Z,27.36
2023-06-18T09:16:31.804Z,26.64
2023-06-18T09:18:58.616Z,26.32
2023-06-18T09:21:44.420Z,26.51
2023-06-18T09:24:20.478Z,26.69
2023-06-18T09:27:00.925Z,26.79
2023-06-18T09:29:33.985Z,25.59
2023-06-18T09:32:07.574Z,25.83
2023-06-18T09:34:37.800Z,25.81
2023-06-18T09:37:06.379Z,25.73
2023-06-18T09:39:34.206Z,25.81
2023-06-18T09:42:08.755Z,25.27
2023-06-18T09:44:35.864Z,25.83
2023-06-18T09:47:10.235Z,25.83
2023-06-18T09:49:36.845Z,25.21
2023-06-18T09:52:06.289Z,25.17
2023-06-18T09:54:41.695Z,24.79
2023-06-18T09:57:09.869Z,25.59
2023-06-18T09:59:36.647Z,24.53
2023-06-18T10:02:03.268Z,24.24
2023-06-18T10:04:30.029Z,24.11
2023-06-18T10:07:07.122Z,24.57
2023-06-18T10:09:36.888Z,24.48
2023-06-18T10:12:07.621Z,23.53
2023-06-18T10:14:35.198Z,24.87
2023-06-18T10:17:15.607Z,24.43
2023-06-18T10:19:50.631Z,24.64
2023-06-18T10:22:19.534Z,25.02
2023-06-18T10:25:06.675Z,23.67
2023-06-18T10:27:35.997Z,23.50
2023-06-18T10:30:03.438Z,23.99
2023-06-18T10:32:34.703Z,23.20
2023-06-18T10:35:04.801Z,23.21
2023-06-18T10:37:33.016Z,23.12
2023-06-18T10:40:00.706Z,23.05
2023-06-18T10:42:31.035Z,22.22
2023-06-18T10:44:59.547Z,22.48
2023-06-18T10:47:28.663Z,21.94
2023-06-18T10:50:01.362Z,22.53
2023-06-18T10:52:32.436Z,22.79
2023-06-18T10:55:12.682Z,21.88
2023-06-18T10:57:47.014Z,21.83
2023-06-18T11:00:30.766Z,21.60
2023-06-18T11:03:01.740Z,21.42
2023-06-18T11:05:32.580Z,20.63
2023-06-18T11:08:04.839Z,21.14
2023-06-18T11:10:33.560Z,21.20
2023-06-18T11:13:02.562Z,21.59
2023-06-18T11:15:29.116Z,21.46
2023-06-18T11:18:02.161Z,21.90
2023-06-18T11:20:34.825Z,21.85
2023-06-18T11:23:02.743Z,22.31
2023-06-18T11:25:30.441Z,22.37
2023-06-18T11:28:03.397Z,22.15
2023-06-18T11:30:34.931Z,22.16
2023-06-18T11:33:01.946Z,22.48
2023-06-18T11:35:32.117Z,22.44
2023-06-18T11:37:58.961Z,21.89
2023-06-18T11:40:25.775Z,21.87
2023-06-18T11:42:53.578Z,22.28
2023-06-18T11:45:22.206Z,21.88
2023-06-18T11:47:53.232Z,21.13
2023-06-18T11:50:22.949Z,21.71
2023-06-18T11:52:49.800Z,21.70
2023-06-18T11:55:19.283Z,22.18
2023-06-18T11:57:46.029Z,21.76
2023-06-18T12:00:15.093Z,21.52
2023-06-18T12:02:42.719Z,21.64
2023-06-18T12:05:12.163Z,22.09
2023-06-18T12:07:44.061Z,21.10
2023-06-18T12:10:12.492Z,21.19
2023-06-18T12:12:42.411Z,21.46
2023-06-18T12:15:23.910Z,21.74
2023-06-18T12:18:18.484Z,21.76
2023-06-18T12:20:45.694Z,21.81
2023-06-18T12:23:13.159Z,21.86
2023-06-18T12:25:40.449Z,21.58
2023-06-18T12:28:08.729Z,22.49
2023-06-18T12:30:40.576Z,21.33
2023-06-18T12:33:10.007Z,21.08
2023-06-18T12:35:37.768Z,20.31
2023-06-18T12:38:09.716Z,20.43
2023-06-18T12:40:48.075Z,20.08
2023-06-18T12:43:17.218Z,21.10
2023-06-18T12:45:48.597Z,21.69
2023-06-18T12:48:18.199Z,22.79
2023-06-18T12:50:47.233Z,23.04
2023-06-18T12:53:22.091Z,23.26
2023-06-18T12:55:51.995Z,21.32
2023-06-18T12:58:25.619Z,21.53
2023-06-18T13:01:01.042Z,21.12
2023-06-18T13:03:28.396Z,22.58
2023-06-18T13:05:59.147Z,20.71
2023-06-18T13:08:25.785Z,20.50
2023-06-18T13:10:56.350Z,21.43
2023-06-18T13:13:22.849Z,20.26
2023-06-18T13:15:55.473Z,20.31
2023-06-18T13:18:22.422Z,20.50
2023-06-18T13:20:51.885Z,19.84
2023-06-18T13:23:18.912Z,19.62
2023-06-18T13:25:45.821Z,19.12
2023-06-18T13:28:12.839Z,19.36
2023-06-18T13:30:40.491Z,20.02
2023-06-18T13:33:07.283Z,20.39
2023-06-18T13:35:34.115Z,20.65
2023-06-18T13:38:01.140Z,21.10
2023-06-18T13:40:28.906Z,21.83
2023-06-18T13:42:55.931Z,21.67
2023-06-18T13:45:22.720Z,20.82
2023-06-18T13:47:49.820Z,21.02
2023-06-18T13:50:18.566Z,19.56
2023-06-18T13:52:47.466Z,19.02
2023-06-18T13:55:14.333Z,19.35
2023-06-18T13:57:41.078Z,19.39
2023-06-18T14:00:09.280Z,18.93
2023-06-18T14:02:38.140Z,18.89
2023-06-18T14:05:07.703Z,18.46
2023-06-18T14:07:34.925Z,17.82
2023-06-18T14:10:03.281Z,17.73
2023-06-18T14:12:30.104Z,17.26
2023-06-18T14:15:00.530Z,17.47
2023-06-18T14:17:27.616Z,17.80
2023-06-18T14:19:55.052Z,17.46
2023-06-18T14:22:22.178Z,17.25
2023-06-18T14:24:48.980Z,16.99
2023-06-18T14:27:15.669Z,17.78
2023-06-18T14:29:42.335Z,18.87
2023-06-18T14:32:08.972Z,18.86
2023-06-18T14:34:35.873Z,18.75
2023-06-18T14:37:02.651Z,19.48
2023-06-18T14:39:29.300Z,20.61
2023-06-18T14:41:56.043Z,20.64
2023-06-18T14:44:25.145Z,21.24
2023-06-18T14:46:51.968Z,20.96
2023-06-18T14:49:18.779Z,20.75
2023-06-18T14:51:45.443Z,20.41
2023-06-18T14:54:17.118Z,20.12
2023-06-18T14:56:47.314Z,20.00
2023-06-18T14:59:14.082Z,20.11
2023-06-18T15:01:40.867Z,19.66
2023-06-18T15:04:08.912Z,20.51
2023-06-18T15:06:36.688Z,21.13
2023-06-18T15:09:04.732Z,20.49
2023-06-18T15:11:32.366Z,21.00
2023-06-18T15:13:59.192Z,20.42
2023-06-18T15:16:26.180Z,20.60
2023-06-18T15:18:56.395Z,19.83
2023-06-18T15:21:23.027Z,19.87
2023-06-18T15:23:49.721Z,20.17
2023-06-18T15:26:16.885Z,21.88
2023-06-18T15:28:48.976Z,22.08
2023-06-18T15:31:18.848Z,21.29
2023-06-18T15:33:47.183Z,21.42
2023-06-18T15:36:18.666Z,22.46
2023-06-18T15:38:49.822Z,22.23
2023-06-18T15:41:16.335Z,23.12
2023-06-18T15:43:42.950Z,22.83
2023-06-18T15:46:09.728Z,23.54
2023-06-18T15:48:37.703Z,23.63
2023-06-18T15:54:18.256Z,24.02
2023-06-18T15:56:45.899Z,24.67
2023-06-18T15:59:20.117Z,24.55
2023-06-18T16:01:49.600Z,24.38
2023-06-18T16:04:18.939Z,24.79
2023-06-18T16:06:57.072Z,24.60
2023-06-18T16:09:35.870Z,24.72
2023-06-18T16:12:08.214Z,24.91
2023-06-18T16:14:35.328Z,25.28
2023-06-18T16:17:09.996Z,25.15
2023-06-18T16:19:37.883Z,25.48
2023-06-18T16:22:32.564Z,25.47
2023-06-18T16:25:10.598Z,25.31
2023-06-18T16:28:19.941Z,25.82
2023-06-18T16:30:59.126Z,25.66
2023-06-18T16:33:30.996Z,26.16
2023-06-18T16:36:00.553Z,26.00
2023-06-18T16:38:30.477Z,26.51
2023-06-18T16:40:59.412Z,25.97
2023-06-18T16:43:43.415Z,26.19
2023-06-18T16:46:25.630Z,26.21
2023-06-18T16:48:52.504Z,26.14
2023-06-18T16:51:21.834Z,26.35
2023-06-18T16:53:55.742Z,26.77
2023-06-18T16:56:23.434Z,26.64
2023-06-18T16:58:53.286Z,27.12
2023-06-18T17:01:22.899Z,27.49
2023-06-18T17:03:53.811Z,27.12
2023-06-18T17:06:21.979Z,27.86
2023-06-18T17:08:50.052Z,27.67
2023-06-18T17:11:41.008Z,28.19
2023-06-18T17:14:10.955Z,29.58
2023-06-18T17:16:38.994Z,29.61
2023-06-18T17:19:09.836Z,29.17
2023-06-18T17:22:09.369Z,28.85
2023-06-18T17:24:40.245Z,28.81
2023-06-18T17:31:07.743Z,29.86
2023-06-18T17:33:54.089Z,30.18
2023-06-18T17:46:26.043Z,32.80
2023-06-18T17:58:49.803Z,34.60
2023-06-18T18:02:10.159Z,34.70
2023-06-18T18:05:41.812Z,35.23
2023-06-18T18:12:57.986Z,35.74
2023-06-18T18:35:53.670Z,36.70
2023-06-18T18:38:23.240Z,36.94
2023-06-18T18:40:50.509Z,37.31
2023-06-18T18:43:17.655Z,37.33
2023-06-18T18:45:44.664Z,37.68
2023-06-18T18:48:11.609Z,38.51
2023-06-18T18:50:38.577Z,38.42
2023-06-18T18:53:05.349Z,38.46
2023-06-18T18:55:32.059Z,38.33
2023-06-18T18:58:03.188Z,39.23
2023-06-18T19:00:32.968Z,39.24
2023-06-18T19:03:03.159Z,39.43
2023-06-18T19:05:29.928Z,39.36
2023-06-18T19:07:56.638Z,39.32
2023-06-18T19:10:23.644Z,39.77
2023-06-18T19:12:52.327Z,40.29
2023-06-18T19:15:19.383Z,40.46
2023-06-18T19:17:46.352Z,40.61
2023-06-18T19:20:13.886Z,42.66
2023-06-18T19:22:41.036Z,42.16
2023-06-18T19:25:08.179Z,41.99
2023-06-18T19:27:34.910Z,41.54
2023-06-18T19:30:01.880Z,41.67
2023-06-18T19:32:28.678Z,42.50
2023-06-18T19:34:55.574Z,42.07
2023-06-18T19:37:22.338Z,42.74
2023-06-18T19:39:49.704Z,42.93
2023-06-18T19:42:19.385Z,43.16
2023-06-18T19:44:46.806Z,43.11
2023-06-18T19:47:13.649Z,43.02
2023-06-18T19:49:40.663Z,42.99
2023-06-18T19:52:07.596Z,42.13
2023-06-18T19:54:37.429Z,42.74
2023-06-18T19:57:05.736Z,44.42
2023-06-18T19:59:32.727Z,43.44
2023-06-18T20:01:59.847Z,43.30
2023-06-18T20:04:27.228Z,43.50
2023-06-18T20:06:54.229Z,44.18
2023-06-18T20:09:21.105Z,44.81
2023-06-18T20:11:47.772Z,44.72
2023-06-18T20:14:14.859Z,44.89
2023-06-18T20:16:41.665Z,44.90
2023-06-18T20:19:08.605Z,45.06
2023-06-18T20:21:35.368Z,45.67
2023-06-18T20:24:02.162Z,45.86
2023-06-18T20:26:29.124Z,46.37
2023-06-18T20:28:55.830Z,44.99
2023-06-18T20:31:22.760Z,45.61
2023-06-18T20:33:50.673Z,46.31
2023-06-18T20:36:20.822Z,46.57
2023-06-18T20:38:48.613Z,46.23
2023-06-18T20:41:15.733Z,45.48
2023-06-18T20:43:42.593Z,46.62
2023-06-18T20:46:10.509Z,47.03
2023-06-18T20:48:37.809Z,46.66
2023-06-18T20:51:04.909Z,47.57
2023-06-18T20:53:35.303Z,47.33
2023-06-18T20:56:02.707Z,47.85
2023-06-18T20:58:29.614Z,47.20
2023-06-18T21:00:56.547Z,46.58
2023-06-18T21:03:24.758Z,47.08
2023-06-18T21:05:52.083Z,47.04
2023-06-18T21:08:19.809Z,47.79
2023-06-18T21:10:47.061Z,48.27
2023-06-18T21:13:13.940Z,48.62
2023-06-18T21:15:40.709Z,48.73
2023-06-18T21:18:07.800Z,48.99
2023-06-18T21:20:34.670Z,48.59
2023-06-18T21:23:01.424Z,48.33
2023-06-18T21:25:28.399Z,48.14
2023-06-18T21:27:57.320Z,48.19
2023-06-18T21:30:25.609Z,47.50
2023-06-18T21:32:53.652Z,48.30
2023-06-18T21:35:20.970Z,48.16
2023-06-18T21:37:47.702Z,48.19
2023-06-18T21:40:16.005Z,48.52
2023-06-18T21:42:46.254Z,49.38
2023-06-18T21:45:13.524Z,48.56
2023-06-18T21:47:41.022Z,48.18
2023-06-18T21:50:09.047Z,48.34
2023-06-18T21:52:36.536Z,49.30
2023-06-18T21:55:03.486Z,49.06
2023-06-18T21:57:30.294Z,48.96
2023-06-18T21:59:57.159Z,49.77
2023-06-18T22:02:24.147Z,49.70
2023-06-18T22:04:50.949Z,49.37
2023-06-18T22:07:18.038Z,49.64
2023-06-18T22:09:45.061Z,50.09
2023-06-18T22:12:12.412Z,50.04
2023-06-18T22:14:39.169Z,49.88
2023-06-18T22:17:06.265Z,50.49
2023-06-18T22:19:33.570Z,50.35
2023-06-18T22:22:00.455Z,50.34
2023-06-18T22:24:27.386Z,49.63
2023-06-18T22:27:04.047Z,50.57
2023-06-18T22:29:30.783Z,49.46
2023-06-18T22:31:57.573Z,50.22
2023-06-18T22:34:36.554Z,50.49
2023-06-18T22:37:07.736Z,50.26
2023-06-18T22:39:34.444Z,50.92
2023-06-18T22:42:01.276Z,51.09
2023-06-18T22:44:27.930Z,50.51
2023-06-18T22:46:54.646Z,50.33
2023-06-18T22:49:21.391Z,50.80
2023-06-18T22:51:55.310Z,50.57
2023-06-18T22:54:22.248Z,50.11
2023-06-18T22:56:48.986Z,50.94
2023-06-18T22:59:15.853Z,51.24
2023-06-18T23:01:42.775Z,51.70
2023-06-18T23:04:09.597Z,51.57
2023-06-18T23:06:36.345Z,52.33
2023-06-18T23:09:04.152Z,52.02
2023-06-18T23:11:30.839Z,52.18
2023-06-18T23:13:57.648Z,51.81
2023-06-18T23:16:24.353Z,52.25
2023-06-18T23:18:52.308Z,52.31
2023-06-18T23:21:19.262Z,52.29
2023-06-18T23:23:46.024Z,52.21
2023-06-18T23:26:12.928Z,52.11
2023-06-18T23:28:39.756Z,52.26
2023-06-18T23:31:07.026Z,52.64
2023-06-18T23:33:33.741Z,53.01
2023-06-18T23:36:03.214Z,52.97
2023-06-18T23:38:29.974Z,52.85
2023-06-18T23:40:56.966Z,52.49
2023-06-18T23:43:23.842Z,52.42
2023-06-18T23:45:50.578Z,52.75
2023-06-18T23:48:17.344Z,52.79
2023-06-18T23:50:44.344Z,52.44
2023-06-18T23:53:11.069Z,52.72
2023-06-18T23:55:38.754Z,53.71
2023-06-18T23:58:05.469Z,53.65
